sensor_id;sensor_type;location;lat;lon;timestamp;P1;durP1;ratioP1;P2;durP2;ratioP2
9398;SDS011;4739;49.334;8.792;2022-08-01T00:01:50;3.47;;;2.33;;
9398;SDS011;4739;49.334;8.792;2022-08-01T00:04:16;2.30;;;2.10;;
9398;SDS011;4739;49.334;8.792;2022-08-01T00:06:42;3.17;;;2.30;;
9398;SDS011;4739;49.334;8.792;2022-08-01T00:09:08;2.40;;;2.13;;
9398;SDS011;4739;49.334;8.792;2022-08-01T00:11:34;5.37;;;2.37;;
9398;SDS011;4739;49.334;8.792;2022-08-01T00:14:00;3.50;;;2.50;;
9398;SDS011;4739;49.334;8.792;2022-08-01T00:16:26;3.40;;;2.30;;
9398;SDS011;4739;49.334;8.792;2022-08-01T00:18:52;3.17;;;2.07;;
9398;SDS011;4739;49.334;8.792;2022-08-01T00:21:19;2.70;;;2.20;;
9398;SDS011;4739;49.334;8.792;2022-08-01T00:23:45;6.77;;;2.60;;
9398;SDS011;4739;49.334;8.792;2022-08-01T00:26:11;2.70;;;2.30;;
9398;SDS011;4739;49.334;8.792;2022-08-01T00:28:37;5.07;;;2.40;;
9398;SDS011;4739;49.334;8.792;2022-08-01T00:31:03;2.77;;;2.47;;
9398;SDS011;4739;49.334;8.792;2022-08-01T00:33:29;2.83;;;2.40;;
9398;SDS011;4739;49.334;8.792;2022-08-01T00:35:55;2.57;;;2.37;;
9398;SDS011;4739;49.334;8.792;2022-08-01T00:38:22;2.90;;;2.40;;
9398;SDS011;4739;49.334;8.792;2022-08-01T00:40:49;2.83;;;2.43;;
9398;SDS011;4739;49.334;8.792;2022-08-01T00:43:15;3.63;;;2.53;;
9398;SDS011;4739;49.334;8.792;2022-08-01T00:45:42;3.90;;;2.40;;
9398;SDS011;4739;49.334;8.792;2022-08-01T00:48:08;2.83;;;2.40;;
9398;SDS011;4739;49.334;8.792;2022-08-01T00:50:34;3.10;;;2.27;;
9398;SDS011;4739;49.334;8.792;2022-08-01T00:53:01;3.33;;;2.40;;
9398;SDS011;4739;49.334;8.792;2022-08-01T00:55:27;2.33;;;2.10;;
9398;SDS011;4739;49.334;8.792;2022-08-01T00:57:53;3.00;;;2.30;;
9398;SDS011;4739;49.334;8.792;2022-08-01T01:00:19;4.87;;;2.60;;
9398;SDS011;4739;49.334;8.792;2022-08-01T01:02:46;3.03;;;2.37;;
9398;SDS011;4739;49.334;8.792;2022-08-01T01:05:12;4.10;;;2.60;;
9398;SDS011;4739;49.334;8.792;2022-08-01T01:13:05;4.53;;;2.50;;
9398;SDS011;4739;49.334;8.792;2022-08-01T01:15:39;3.47;;;2.53;;
9398;SDS011;4739;49.334;8.792;2022-08-01T01:18:11;4.97;;;2.63;;
9398;SDS011;4739;49.334;8.792;2022-08-01T01:20:38;2.97;;;2.17;;
9398;SDS011;4739;49.334;8.792;2022-08-01T01:30:34;5.60;;;2.73;;
9398;SDS011;4739;49.334;8.792;2022-08-01T01:33:03;2.93;;;2.53;;
9398;SDS011;4739;49.334;8.792;2022-08-01T01:35:32;4.53;;;2.47;;
9398;SDS011;4739;49.334;8.792;2022-08-01T01:38:10;3.20;;;2.37;;
9398;SDS011;4739;49.334;8.792;2022-08-01T01:40:40;4.40;;;2.43;;
9398;SDS011;4739;49.334;8.792;2022-08-01T01:43:08;2.77;;;2.50;;
9398;SDS011;4739;49.334;8.792;2022-08-01T01:45:35;4.53;;;2.80;;
9398;SDS011;4739;49.334;8.792;2022-08-01T01:48:01;5.47;;;3.20;;
9398;SDS011;4739;49.334;8.792;2022-08-01T01:50:27;4.20;;;2.40;;
9398;SDS011;4739;49.334;8.792;2022-08-01T01:52:54;3.37;;;2.67;;
9398;SDS011;4739;49.334;8.792;2022-08-01T01:55:21;3.07;;;2.37;;
9398;SDS011;4739;49.334;8.792;2022-08-01T01:57:50;6.73;;;2.67;;
9398;SDS011;4739;49.334;8.792;2022-08-01T02:00:18;3.60;;;2.60;;
9398;SDS011;4739;49.334;8.792;2022-08-01T02:02:44;5.17;;;2.57;;
9398;SDS011;4739;49.334;8.792;2022-08-01T02:05:11;2.80;;;2.47;;
9398;SDS011;4739;49.334;8.792;2022-08-01T02:07:38;3.20;;;2.50;;
9398;SDS011;4739;49.334;8.792;2022-08-01T02:10:05;3.50;;;2.60;;
9398;SDS011;4739;49.334;8.792;2022-08-01T02:12:32;3.03;;;2.30;;
9398;SDS011;4739;49.334;8.792;2022-08-01T02:15:01;2.57;;;2.37;;
9398;SDS011;4739;49.334;8.792;2022-08-01T02:17:28;3.83;;;2.70;;
9398;SDS011;4739;49.334;8.792;2022-08-01T02:19:55;5.13;;;2.97;;
9398;SDS011;4739;49.334;8.792;2022-08-01T02:27:41;3.07;;;2.60;;
9398;SDS011;4739;49.334;8.792;2022-08-01T02:30:10;4.17;;;2.30;;
9398;SDS011;4739;49.334;8.792;2022-08-01T02:32:48;3.03;;;2.43;;
9398;SDS011;4739;49.334;8.792;2022-08-01T02:35:27;2.60;;;2.40;;
9398;SDS011;4739;49.334;8.792;2022-08-01T02:37:54;2.53;;;2.30;;
9398;SDS011;4739;49.334;8.792;2022-08-01T02:40:21;3.17;;;2.20;;
9398;SDS011;4739;49.334;8.792;2022-08-01T02:42:49;3.43;;;2.00;;
9398;SDS011;4739;49.334;8.792;2022-08-01T02:45:17;2.90;;;2.50;;
9398;SDS011;4739;49.334;8.792;2022-08-01T02:47:45;2.30;;;2.10;;
9398;SDS011;4739;49.334;8.792;2022-08-01T02:50:14;6.27;;;2.57;;
9398;SDS011;4739;49.334;8.792;2022-08-01T02:52:42;2.33;;;2.00;;
9398;SDS011;4739;49.334;8.792;2022-08-01T02:55:11;3.80;;;2.10;;
9398;SDS011;4739;49.334;8.792;2022-08-01T02:57:37;6.30;;;2.50;;
9398;SDS011;4739;49.334;8.792;2022-08-01T03:00:04;6.23;;;2.53;;
9398;SDS011;4739;49.334;8.792;2022-08-01T03:02:31;4.73;;;2.53;;
9398;SDS011;4739;49.334;8.792;2022-08-01T03:04:58;3.70;;;2.30;;
9398;SDS011;4739;49.334;8.792;2022-08-01T03:07:24;3.50;;;2.50;;
9398;SDS011;4739;49.334;8.792;2022-08-01T03:09:51;2.53;;;2.30;;
9398;SDS011;4739;49.334;8.792;2022-08-01T03:12:18;5.03;;;2.50;;
9398;SDS011;4739;49.334;8.792;2022-08-01T03:14:45;3.93;;;2.60;;
9398;SDS011;4739;49.334;8.792;2022-08-01T03:17:12;4.40;;;2.40;;
9398;SDS011;4739;49.334;8.792;2022-08-01T03:19:39;4.53;;;2.70;;
9398;SDS011;4739;49.334;8.792;2022-08-01T03:22:06;6.43;;;2.60;;
9398;SDS011;4739;49.334;8.792;2022-08-01T03:24:33;4.70;;;3.30;;
9398;SDS011;4739;49.334;8.792;2022-08-01T03:26:59;6.67;;;3.33;;
9398;SDS011;4739;49.334;8.792;2022-08-01T03:29:27;5.03;;;3.40;;
9398;SDS011;4739;49.334;8.792;2022-08-01T03:31:54;7.57;;;3.70;;
9398;SDS011;4739;49.334;8.792;2022-08-01T03:34:21;3.40;;;2.83;;
9398;SDS011;4739;49.334;8.792;2022-08-01T03:39:33;2.63;;;2.43;;
9398;SDS011;4739;49.334;8.792;2022-08-01T03:42:07;3.33;;;2.70;;
9398;SDS011;4739;49.334;8.792;2022-08-01T03:44:39;3.00;;;2.70;;
9398;SDS011;4739;49.334;8.792;2022-08-01T03:47:07;5.67;;;2.73;;
9398;SDS011;4739;49.334;8.792;2022-08-01T03:49:38;3.03;;;2.50;;
9398;SDS011;4739;49.334;8.792;2022-08-01T03:52:07;5.20;;;2.80;;
9398;SDS011;4739;49.334;8.792;2022-08-01T03:54:37;3.40;;;2.50;;
9398;SDS011;4739;49.334;8.792;2022-08-01T03:57:07;3.57;;;2.70;;
9398;SDS011;4739;49.334;8.792;2022-08-01T03:59:34;4.53;;;2.43;;
9398;SDS011;4739;49.334;8.792;2022-08-01T04:02:01;4.73;;;2.73;;
9398;SDS011;4739;49.334;8.792;2022-08-01T04:04:28;3.47;;;2.70;;
9398;SDS011;4739;49.334;8.792;2022-08-01T04:06:56;4.53;;;2.50;;
9398;SDS011;4739;49.334;8.792;2022-08-01T04:09:29;3.10;;;2.80;;
9398;SDS011;4739;49.334;8.792;2022-08-01T04:12:00;3.43;;;2.70;;
9398;SDS011;4739;49.334;8.792;2022-08-01T04:14:27;3.83;;;2.43;;
9398;SDS011;4739;49.334;8.792;2022-08-01T04:16:55;4.93;;;2.53;;
9398;SDS011;4739;49.334;8.792;2022-08-01T04:19:21;4.70;;;2.83;;
9398;SDS011;4739;49.334;8.792;2022-08-01T04:21:46;5.07;;;2.60;;
9398;SDS011;4739;49.334;8.792;2022-08-01T04:24:13;4.53;;;2.47;;
9398;SDS011;4739;49.334;8.792;2022-08-01T04:26:43;5.97;;;2.37;;
9398;SDS011;4739;49.334;8.792;2022-08-01T04:29:10;5.97;;;2.90;;
9398;SDS011;4739;49.334;8.792;2022-08-01T04:31:37;3.40;;;2.50;;
9398;SDS011;4739;49.334;8.792;2022-08-01T04:34:06;6.93;;;2.80;;
9398;SDS011;4739;49.334;8.792;2022-08-01T04:36:33;9.80;;;3.00;;
9398;SDS011;4739;49.334;8.792;2022-08-01T04:39:00;6.10;;;3.10;;
9398;SDS011;4739;49.334;8.792;2022-08-01T04:41:26;3.60;;;2.80;;
9398;SDS011;4739;49.334;8.792;2022-08-01T04:43:53;6.63;;;2.90;;
9398;SDS011;4739;49.334;8.792;2022-08-01T04:46:20;6.40;;;3.37;;
9398;SDS011;4739;49.334;8.792;2022-08-01T04:48:46;5.10;;;2.90;;
9398;SDS011;4739;49.334;8.792;2022-08-01T04:51:13;3.50;;;2.60;;
9398;SDS011;4739;49.334;8.792;2022-08-01T04:53:43;5.37;;;3.00;;
9398;SDS011;4739;49.334;8.792;2022-08-01T04:56:10;4.73;;;2.80;;
9398;SDS011;4739;49.334;8.792;2022-08-01T04:58:38;4.50;;;3.03;;
9398;SDS011;4739;49.334;8.792;2022-08-01T05:01:04;4.80;;;3.10;;
9398;SDS011;4739;49.334;8.792;2022-08-01T05:03:30;6.30;;;3.03;;
9398;SDS011;4739;49.334;8.792;2022-08-01T05:05:56;8.07;;;3.53;;
9398;SDS011;4739;49.334;8.792;2022-08-01T05:08:22;22.47;;;4.93;;
9398;SDS011;4739;49.334;8.792;2022-08-01T05:10:48;17.63;;;4.50;;
9398;SDS011;4739;49.334;8.792;2022-08-01T05:13:14;19.63;;;4.43;;
9398;SDS011;4739;49.334;8.792;2022-08-01T05:15:40;15.40;;;3.77;;
9398;SDS011;4739;49.334;8.792;2022-08-01T05:18:06;14.90;;;3.80;;
9398;SDS011;4739;49.334;8.792;2022-08-01T05:20:32;19.27;;;4.37;;
9398;SDS011;4739;49.334;8.792;2022-08-01T05:22:58;20.03;;;4.07;;
9398;SDS011;4739;49.334;8.792;2022-08-01T05:25:24;23.43;;;4.23;;
9398;SDS011;4739;49.334;8.792;2022-08-01T05:27:50;22.17;;;4.20;;
9398;SDS011;4739;49.334;8.792;2022-08-01T05:30:17;12.27;;;4.17;;
9398;SDS011;4739;49.334;8.792;2022-08-01T05:32:43;18.03;;;4.50;;
9398;SDS011;4739;49.334;8.792;2022-08-01T05:35:09;21.33;;;4.13;;
9398;SDS011;4739;49.334;8.792;2022-08-01T05:37:35;24.67;;;4.87;;
9398;SDS011;4739;49.334;8.792;2022-08-01T05:40:01;17.33;;;4.50;;
9398;SDS011;4739;49.334;8.792;2022-08-01T05:42:27;15.57;;;4.17;;
9398;SDS011;4739;49.334;8.792;2022-08-01T05:44:53;21.57;;;4.20;;
9398;SDS011;4739;49.334;8.792;2022-08-01T05:47:19;16.03;;;3.70;;
9398;SDS011;4739;49.334;8.792;2022-08-01T05:49:45;11.90;;;3.77;;
9398;SDS011;4739;49.334;8.792;2022-08-01T05:52:11;9.07;;;3.87;;
9398;SDS011;4739;49.334;8.792;2022-08-01T05:54:37;14.57;;;3.90;;
9398;SDS011;4739;49.334;8.792;2022-08-01T05:57:03;12.70;;;3.70;;
9398;SDS011;4739;49.334;8.792;2022-08-01T05:59:29;13.57;;;3.87;;
9398;SDS011;4739;49.334;8.792;2022-08-01T06:01:56;10.37;;;3.57;;
9398;SDS011;4739;49.334;8.792;2022-08-01T06:04:22;12.27;;;3.80;;
9398;SDS011;4739;49.334;8.792;2022-08-01T06:06:48;8.93;;;3.70;;
9398;SDS011;4739;49.334;8.792;2022-08-01T06:09:14;11.87;;;4.43;;
9398;SDS011;4739;49.334;8.792;2022-08-01T06:11:40;12.53;;;3.67;;
9398;SDS011;4739;49.334;8.792;2022-08-01T06:14:06;10.20;;;4.00;;
9398;SDS011;4739;49.334;8.792;2022-08-01T06:16:32;13.40;;;4.17;;
9398;SDS011;4739;49.334;8.792;2022-08-01T06:18:58;9.70;;;4.20;;
9398;SDS011;4739;49.334;8.792;2022-08-01T06:21:24;9.10;;;3.40;;
9398;SDS011;4739;49.334;8.792;2022-08-01T06:23:50;6.63;;;3.90;;
9398;SDS011;4739;49.334;8.792;2022-08-01T06:26:17;6.03;;;3.40;;
9398;SDS011;4739;49.334;8.792;2022-08-01T06:28:43;5.30;;;3.63;;
9398;SDS011;4739;49.334;8.792;2022-08-01T06:31:09;9.83;;;3.70;;
9398;SDS011;4739;49.334;8.792;2022-08-01T06:33:37;5.33;;;3.70;;
9398;SDS011;4739;49.334;8.792;2022-08-01T06:36:03;3.83;;;3.43;;
9398;SDS011;4739;49.334;8.792;2022-08-01T06:38:29;3.93;;;2.90;;
9398;SDS011;4739;49.334;8.792;2022-08-01T06:40:55;4.37;;;3.47;;
9398;SDS011;4739;49.334;8.792;2022-08-01T06:43:21;7.10;;;3.77;;
9398;SDS011;4739;49.334;8.792;2022-08-01T06:45:47;7.80;;;3.30;;
9398;SDS011;4739;49.334;8.792;2022-08-01T06:48:13;3.10;;;2.47;;
9398;SDS011;4739;49.334;8.792;2022-08-01T06:50:39;4.80;;;2.87;;
9398;SDS011;4739;49.334;8.792;2022-08-01T06:53:05;4.87;;;2.57;;
9398;SDS011;4739;49.334;8.792;2022-08-01T06:55:31;4.10;;;2.40;;
9398;SDS011;4739;49.334;8.792;2022-08-01T06:57:57;3.13;;;2.03;;
9398;SDS011;4739;49.334;8.792;2022-08-01T07:00:24;4.53;;;2.37;;
9398;SDS011;4739;49.334;8.792;2022-08-01T07:02:54;5.13;;;2.67;;
9398;SDS011;4739;49.334;8.792;2022-08-01T07:05:20;1.97;;;1.80;;
9398;SDS011;4739;49.334;8.792;2022-08-01T07:07:46;2.13;;;1.93;;
9398;SDS011;4739;49.334;8.792;2022-08-01T07:10:12;1.90;;;1.67;;
9398;SDS011;4739;49.334;8.792;2022-08-01T07:12:38;3.07;;;1.60;;
9398;SDS011;4739;49.334;8.792;2022-08-01T07:15:06;2.10;;;1.70;;
9398;SDS011;4739;49.334;8.792;2022-08-01T07:17:32;3.70;;;1.60;;
9398;SDS011;4739;49.334;8.792;2022-08-01T07:20:01;2.47;;;1.70;;
9398;SDS011;4739;49.334;8.792;2022-08-01T07:22:27;2.57;;;1.60;;
9398;SDS011;4739;49.334;8.792;2022-08-01T07:24:53;4.40;;;2.37;;
9398;SDS011;4739;49.334;8.792;2022-08-01T07:27:19;3.47;;;2.00;;
9398;SDS011;4739;49.334;8.792;2022-08-01T07:29:45;5.93;;;1.60;;
9398;SDS011;4739;49.334;8.792;2022-08-01T07:32:11;2.97;;;1.40;;
9398;SDS011;4739;49.334;8.792;2022-08-01T07:34:37;2.90;;;1.83;;
9398;SDS011;4739;49.334;8.792;2022-08-01T07:37:03;3.03;;;1.30;;
9398;SDS011;4739;49.334;8.792;2022-08-01T07:39:29;2.20;;;1.80;;
9398;SDS011;4739;49.334;8.792;2022-08-01T07:41:55;2.10;;;1.63;;
9398;SDS011;4739;49.334;8.792;2022-08-01T07:44:22;1.60;;;1.43;;
9398;SDS011;4739;49.334;8.792;2022-08-01T07:46:48;3.10;;;1.60;;
9398;SDS011;4739;49.334;8.792;2022-08-01T07:49:14;2.40;;;1.40;;
9398;SDS011;4739;49.334;8.792;2022-08-01T07:51:40;1.43;;;1.33;;
9398;SDS011;4739;49.334;8.792;2022-08-01T07:54:06;3.77;;;1.57;;
9398;SDS011;4739;49.334;8.792;2022-08-01T07:56:32;1.77;;;1.30;;
9398;SDS011;4739;49.334;8.792;2022-08-01T07:58:58;2.00;;;1.70;;
9398;SDS011;4739;49.334;8.792;2022-08-01T08:01:24;4.97;;;1.93;;
9398;SDS011;4739;49.334;8.792;2022-08-01T08:03:51;2.77;;;1.50;;
9398;SDS011;4739;49.334;8.792;2022-08-01T08:06:17;1.47;;;1.37;;
9398;SDS011;4739;49.334;8.792;2022-08-01T08:08:43;1.30;;;1.20;;
9398;SDS011;4739;49.334;8.792;2022-08-01T08:11:09;2.53;;;1.40;;
9398;SDS011;4739;49.334;8.792;2022-08-01T08:13:35;1.17;;;1.07;;
9398;SDS011;4739;49.334;8.792;2022-08-01T08:16:01;1.77;;;1.23;;
9398;SDS011;4739;49.334;8.792;2022-08-01T08:18:27;2.70;;;1.10;;
9398;SDS011;4739;49.334;8.792;2022-08-01T08:20:53;2.17;;;0.90;;
9398;SDS011;4739;49.334;8.792;2022-08-01T08:23:19;1.87;;;1.10;;
9398;SDS011;4739;49.334;8.792;2022-08-01T08:26:04;2.80;;;1.23;;
9398;SDS011;4739;49.334;8.792;2022-08-01T08:28:30;1.27;;;0.90;;
9398;SDS011;4739;49.334;8.792;2022-08-01T08:30:56;1.80;;;1.07;;
9398;SDS011;4739;49.334;8.792;2022-08-01T08:33:22;2.40;;;1.27;;
9398;SDS011;4739;49.334;8.792;2022-08-01T08:35:48;2.10;;;1.37;;
9398;SDS011;4739;49.334;8.792;2022-08-01T08:38:14;2.93;;;1.00;;
9398;SDS011;4739;49.334;8.792;2022-08-01T08:40:40;1.87;;;0.83;;
9398;SDS011;4739;49.334;8.792;2022-08-01T08:43:06;1.00;;;0.80;;
9398;SDS011;4739;49.334;8.792;2022-08-01T08:45:32;1.13;;;1.00;;
9398;SDS011;4739;49.334;8.792;2022-08-01T08:47:59;3.03;;;1.07;;
9398;SDS011;4739;49.334;8.792;2022-08-01T08:50:25;2.20;;;0.90;;
9398;SDS011;4739;49.334;8.792;2022-08-01T08:52:55;1.63;;;1.00;;
9398;SDS011;4739;49.334;8.792;2022-08-01T08:55:21;1.65;;;1.08;;
9398;SDS011;4739;49.334;8.792;2022-08-01T08:57:48;2.95;;;1.17;;
9398;SDS011;4739;49.334;8.792;2022-08-01T09:00:14;1.55;;;0.90;;
9398;SDS011;4739;49.334;8.792;2022-08-01T09:02:44;1.45;;;1.00;;
9398;SDS011;4739;49.334;8.792;2022-08-01T09:05:11;1.90;;;0.80;;
9398;SDS011;4739;49.334;8.792;2022-08-01T09:07:37;1.65;;;0.93;;
9398;SDS011;4739;49.334;8.792;2022-08-01T09:10:03;1.77;;;0.90;;
9398;SDS011;4739;49.334;8.792;2022-08-01T09:12:30;2.17;;;1.10;;
9398;SDS011;4739;49.334;8.792;2022-08-01T09:14:56;2.50;;;1.10;;
9398;SDS011;4739;49.334;8.792;2022-08-01T09:17:22;2.33;;;1.15;;
9398;SDS011;4739;49.334;8.792;2022-08-01T09:19:50;1.38;;;1.00;;
9398;SDS011;4739;49.334;8.792;2022-08-01T09:22:19;2.20;;;1.30;;
9398;SDS011;4739;49.334;8.792;2022-08-01T09:24:58;2.70;;;1.02;;
9398;SDS011;4739;49.334;8.792;2022-08-01T09:27:24;1.02;;;0.80;;
9398;SDS011;4739;49.334;8.792;2022-08-01T09:29:51;1.13;;;0.82;;
9398;SDS011;4739;49.334;8.792;2022-08-01T09:32:18;3.38;;;0.90;;
9398;SDS011;4739;49.334;8.792;2022-08-01T09:34:44;2.13;;;0.82;;
9398;SDS011;4739;49.334;8.792;2022-08-01T09:37:11;1.17;;;0.80;;
9398;SDS011;4739;49.334;8.792;2022-08-01T09:39:39;1.92;;;0.98;;
9398;SDS011;4739;49.334;8.792;2022-08-01T09:44:46;1.30;;;0.73;;
9398;SDS011;4739;49.334;8.792;2022-08-01T09:47:12;1.50;;;0.80;;
9398;SDS011;4739;49.334;8.792;2022-08-01T09:49:39;1.77;;;1.00;;
9398;SDS011;4739;49.334;8.792;2022-08-01T09:54:44;2.17;;;0.95;;
9398;SDS011;4739;49.334;8.792;2022-08-01T09:57:17;0.80;;;0.80;;
9398;SDS011;4739;49.334;8.792;2022-08-01T09:59:45;2.13;;;0.88;;
9398;SDS011;4739;49.334;8.792;2022-08-01T10:02:13;4.18;;;0.98;;
9398;SDS011;4739;49.334;8.792;2022-08-01T10:04:47;2.35;;;0.98;;
9398;SDS011;4739;49.334;8.792;2022-08-01T10:07:13;1.20;;;0.82;;
9398;SDS011;4739;49.334;8.792;2022-08-01T10:09:40;1.83;;;0.95;;
9398;SDS011;4739;49.334;8.792;2022-08-01T10:12:07;1.55;;;0.90;;
9398;SDS011;4739;49.334;8.792;2022-08-01T10:14:33;1.92;;;1.08;;
9398;SDS011;4739;49.334;8.792;2022-08-01T10:17:00;2.83;;;0.80;;
9398;SDS011;4739;49.334;8.792;2022-08-01T10:19:27;2.28;;;0.80;;
9398;SDS011;4739;49.334;8.792;2022-08-01T10:21:54;1.83;;;0.60;;
9398;SDS011;4739;49.334;8.792;2022-08-01T10:24:20;1.00;;;0.63;;
9398;SDS011;4739;49.334;8.792;2022-08-01T10:27:20;4.07;;;1.00;;
9398;SDS011;4739;49.334;8.792;2022-08-01T10:32:08;1.20;;;0.73;;
9398;SDS011;4739;49.334;8.792;2022-08-01T10:34:35;0.65;;;0.65;;
9398;SDS011;4739;49.334;8.792;2022-08-01T10:37:02;0.93;;;0.80;;
9398;SDS011;4739;49.334;8.792;2022-08-01T10:39:28;1.30;;;0.77;;
9398;SDS011;4739;49.334;8.792;2022-08-01T10:41:56;1.88;;;0.90;;
9398;SDS011;4739;49.334;8.792;2022-08-01T10:44:23;3.22;;;1.15;;
9398;SDS011;4739;49.334;8.792;2022-08-01T10:46:50;1.92;;;0.80;;
9398;SDS011;4739;49.334;8.792;2022-08-01T10:49:17;1.67;;;0.70;;
9398;SDS011;4739;49.334;8.792;2022-08-01T10:51:46;0.70;;;0.60;;
9398;SDS011;4739;49.334;8.792;2022-08-01T10:54:12;1.27;;;0.70;;
9398;SDS011;4739;49.334;8.792;2022-08-01T10:59:05;1.85;;;0.60;;
9398;SDS011;4739;49.334;8.792;2022-08-01T11:01:32;1.67;;;0.70;;
9398;SDS011;4739;49.334;8.792;2022-08-01T11:06:25;1.35;;;0.80;;
9398;SDS011;4739;49.334;8.792;2022-08-01T11:08:53;2.05;;;1.00;;
9398;SDS011;4739;49.334;8.792;2022-08-01T11:11:19;2.85;;;0.85;;
9398;SDS011;4739;49.334;8.792;2022-08-01T11:14:04;1.35;;;0.80;;
9398;SDS011;4739;49.334;8.792;2022-08-01T11:16:38;0.95;;;0.65;;
9398;SDS011;4739;49.334;8.792;2022-08-01T11:19:05;1.40;;;0.77;;
9398;SDS011;4739;49.334;8.792;2022-08-01T11:24:16;0.90;;;0.90;;
9398;SDS011;4739;49.334;8.792;2022-08-01T11:27:18;1.13;;;1.00;;
9398;SDS011;4739;49.334;8.792;2022-08-01T11:30:18;1.67;;;0.70;;
9398;SDS011;4739;49.334;8.792;2022-08-01T11:32:30;1.60;;;1.10;;
9398;SDS011;4739;49.334;8.792;2022-08-01T11:34:56;1.00;;;0.80;;
9398;SDS011;4739;49.334;8.792;2022-08-01T11:37:22;1.70;;;0.60;;
9398;SDS011;4739;49.334;8.792;2022-08-01T11:42:34;0.75;;;0.70;;
9398;SDS011;4739;49.334;8.792;2022-08-01T11:45:00;0.88;;;0.70;;
9398;SDS011;4739;49.334;8.792;2022-08-01T11:47:46;2.30;;;0.80;;
9398;SDS011;4739;49.334;8.792;2022-08-01T11:53:00;2.50;;;0.80;;
9398;SDS011;4739;49.334;8.792;2022-08-01T11:55:27;0.73;;;0.73;;
9398;SDS011;4739;49.334;8.792;2022-08-01T12:00:26;0.70;;;0.65;;
9398;SDS011;4739;49.334;8.792;2022-08-01T12:02:59;0.70;;;0.70;;
9398;SDS011;4739;49.334;8.792;2022-08-01T12:05:26;1.00;;;0.68;;
9398;SDS011;4739;49.334;8.792;2022-08-01T12:07:53;0.70;;;0.70;;
9398;SDS011;4739;49.334;8.792;2022-08-01T12:10:20;0.80;;;0.80;;
9398;SDS011;4739;49.334;8.792;2022-08-01T12:15:15;1.27;;;0.80;;
9398;SDS011;4739;49.334;8.792;2022-08-01T12:17:43;1.42;;;0.82;;
9398;SDS011;4739;49.334;8.792;2022-08-01T12:20:10;1.33;;;0.75;;
9398;SDS011;4739;49.334;8.792;2022-08-01T12:22:37;0.85;;;0.70;;
9398;SDS011;4739;49.334;8.792;2022-08-01T12:27:32;0.80;;;0.80;;
9398;SDS011;4739;49.334;8.792;2022-08-01T12:29:58;1.98;;;0.80;;
9398;SDS011;4739;49.334;8.792;2022-08-01T12:32:31;0.85;;;0.73;;
9398;SDS011;4739;49.334;8.792;2022-08-01T12:35:01;1.08;;;0.77;;
9398;SDS011;4739;49.334;8.792;2022-08-01T12:37:27;2.60;;;0.90;;
9398;SDS011;4739;49.334;8.792;2022-08-01T12:39:53;0.77;;;0.70;;
9398;SDS011;4739;49.334;8.792;2022-08-01T12:42:19;1.30;;;0.98;;
9398;SDS011;4739;49.334;8.792;2022-08-01T12:44:47;0.80;;;0.80;;
9398;SDS011;4739;49.334;8.792;2022-08-01T12:47:15;1.85;;;0.88;;
9398;SDS011;4739;49.334;8.792;2022-08-01T12:49:43;1.00;;;0.90;;
9398;SDS011;4739;49.334;8.792;2022-08-01T12:52:09;1.05;;;0.70;;
9398;SDS011;4739;49.334;8.792;2022-08-01T12:57:23;2.22;;;0.82;;
9398;SDS011;4739;49.334;8.792;2022-08-01T12:59:52;1.23;;;1.00;;
9398;SDS011;4739;49.334;8.792;2022-08-01T13:02:18;2.63;;;1.10;;
9398;SDS011;4739;49.334;8.792;2022-08-01T13:04:50;0.70;;;0.70;;
9398;SDS011;4739;49.334;8.792;2022-08-01T13:07:17;1.83;;;0.90;;
9398;SDS011;4739;49.334;8.792;2022-08-01T13:09:49;1.95;;;0.85;;
9398;SDS011;4739;49.334;8.792;2022-08-01T13:12:16;1.33;;;0.80;;
9398;SDS011;4739;49.334;8.792;2022-08-01T13:14:41;1.75;;;1.10;;
9398;SDS011;4739;49.334;8.792;2022-08-01T13:17:07;2.63;;;0.82;;
9398;SDS011;4739;49.334;8.792;2022-08-01T13:19:43;1.00;;;0.90;;
9398;SDS011;4739;49.334;8.792;2022-08-01T13:22:09;1.35;;;0.88;;
9398;SDS011;4739;49.334;8.792;2022-08-01T13:24:35;1.05;;;0.98;;
9398;SDS011;4739;49.334;8.792;2022-08-01T13:27:02;1.83;;;0.98;;
9398;SDS011;4739;49.334;8.792;2022-08-01T13:29:36;2.05;;;1.08;;
9398;SDS011;4739;49.334;8.792;2022-08-01T13:32:12;1.88;;;0.90;;
9398;SDS011;4739;49.334;8.792;2022-08-01T13:34:39;1.92;;;1.00;;
9398;SDS011;4739;49.334;8.792;2022-08-01T13:37:05;1.10;;;1.00;;
9398;SDS011;4739;49.334;8.792;2022-08-01T13:39:31;1.85;;;0.80;;
9398;SDS011;4739;49.334;8.792;2022-08-01T13:42:09;0.90;;;0.80;;
9398;SDS011;4739;49.334;8.792;2022-08-01T13:44:35;0.63;;;0.63;;
9398;SDS011;4739;49.334;8.792;2022-08-01T13:47:02;1.33;;;0.80;;
9398;SDS011;4739;49.334;8.792;2022-08-01T13:49:28;2.28;;;0.90;;
9398;SDS011;4739;49.334;8.792;2022-08-01T13:51:54;1.60;;;1.08;;
9398;SDS011;4739;49.334;8.792;2022-08-01T13:54:20;1.48;;;1.00;;
9398;SDS011;4739;49.334;8.792;2022-08-01T13:56:46;2.05;;;1.13;;
9398;SDS011;4739;49.334;8.792;2022-08-01T13:59:12;1.85;;;0.80;;
9398;SDS011;4739;49.334;8.792;2022-08-01T14:01:38;1.92;;;1.00;;
9398;SDS011;4739;49.334;8.792;2022-08-01T14:04:04;2.05;;;1.00;;
9398;SDS011;4739;49.334;8.792;2022-08-01T14:06:31;1.00;;;1.00;;
9398;SDS011;4739;49.334;8.792;2022-08-01T14:08:57;1.25;;;0.82;;
9398;SDS011;4739;49.334;8.792;2022-08-01T14:11:23;1.35;;;0.88;;
9398;SDS011;4739;49.334;8.792;2022-08-01T14:13:49;2.47;;;0.88;;
9398;SDS011;4739;49.334;8.792;2022-08-01T14:16:16;1.02;;;0.90;;
9398;SDS011;4739;49.334;8.792;2022-08-01T14:18:42;0.95;;;0.90;;
9398;SDS011;4739;49.334;8.792;2022-08-01T14:21:08;0.80;;;0.80;;
9398;SDS011;4739;49.334;8.792;2022-08-01T14:23:34;1.45;;;0.82;;
9398;SDS011;4739;49.334;8.792;2022-08-01T14:26:00;1.02;;;0.93;;
9398;SDS011;4739;49.334;8.792;2022-08-01T14:28:26;1.15;;;0.90;;
9398;SDS011;4739;49.334;8.792;2022-08-01T14:30:53;1.05;;;0.95;;
9398;SDS011;4739;49.334;8.792;2022-08-01T14:33:20;1.00;;;0.93;;
9398;SDS011;4739;49.334;8.792;2022-08-01T14:35:46;1.88;;;0.80;;
9398;SDS011;4739;49.334;8.792;2022-08-01T14:38:12;1.60;;;0.90;;
9398;SDS011;4739;49.334;8.792;2022-08-01T14:40:38;1.50;;;0.73;;
9398;SDS011;4739;49.334;8.792;2022-08-01T14:43:05;1.48;;;0.70;;
9398;SDS011;4739;49.334;8.792;2022-08-01T14:45:31;2.13;;;1.00;;
9398;SDS011;4739;49.334;8.792;2022-08-01T14:47:57;1.60;;;1.08;;
9398;SDS011;4739;49.334;8.792;2022-08-01T14:50:24;2.05;;;0.93;;
9398;SDS011;4739;49.334;8.792;2022-08-01T14:52:51;1.60;;;1.00;;
9398;SDS011;4739;49.334;8.792;2022-08-01T14:55:18;0.93;;;0.70;;
9398;SDS011;4739;49.334;8.792;2022-08-01T14:57:48;2.20;;;1.13;;
9398;SDS011;4739;49.334;8.792;2022-08-01T15:00:14;2.45;;;1.00;;
9398;SDS011;4739;49.334;8.792;2022-08-01T15:02:41;2.67;;;0.90;;
9398;SDS011;4739;49.334;8.792;2022-08-01T15:05:07;1.98;;;0.90;;
9398;SDS011;4739;49.334;8.792;2022-08-01T15:07:33;1.30;;;1.00;;
9398;SDS011;4739;49.334;8.792;2022-08-01T15:09:59;1.88;;;0.90;;
9398;SDS011;4739;49.334;8.792;2022-08-01T15:12:26;2.03;;;1.00;;
9398;SDS011;4739;49.334;8.792;2022-08-01T15:14:52;3.08;;;1.00;;
9398;SDS011;4739;49.334;8.792;2022-08-01T15:17:18;0.70;;;0.65;;
9398;SDS011;4739;49.334;8.792;2022-08-01T15:19:45;1.90;;;0.82;;
9398;SDS011;4739;49.334;8.792;2022-08-01T15:22:11;0.80;;;0.80;;
9398;SDS011;4739;49.334;8.792;2022-08-01T15:24:38;1.38;;;0.95;;
9398;SDS011;4739;49.334;8.792;2022-08-01T15:27:04;3.17;;;0.95;;
9398;SDS011;4739;49.334;8.792;2022-08-01T15:29:30;2.00;;;0.90;;
9398;SDS011;4739;49.334;8.792;2022-08-01T15:31:58;1.92;;;1.00;;
9398;SDS011;4739;49.334;8.792;2022-08-01T15:34:24;0.93;;;0.93;;
9398;SDS011;4739;49.334;8.792;2022-08-01T15:36:50;1.38;;;0.70;;
9398;SDS011;4739;49.334;8.792;2022-08-01T15:39:16;0.82;;;0.80;;
9398;SDS011;4739;49.334;8.792;2022-08-01T15:41:42;3.05;;;1.00;;
9398;SDS011;4739;49.334;8.792;2022-08-01T15:44:09;1.45;;;0.80;;
9398;SDS011;4739;49.334;8.792;2022-08-01T15:46:35;0.73;;;0.70;;
9398;SDS011;4739;49.334;8.792;2022-08-01T15:49:02;2.17;;;0.70;;
9398;SDS011;4739;49.334;8.792;2022-08-01T15:51:29;1.42;;;0.90;;
9398;SDS011;4739;49.334;8.792;2022-08-01T15:53:55;0.90;;;0.75;;
9398;SDS011;4739;49.334;8.792;2022-08-01T15:56:21;1.50;;;0.80;;
9398;SDS011;4739;49.334;8.792;2022-08-01T15:58:47;1.10;;;0.75;;
9398;SDS011;4739;49.334;8.792;2022-08-01T16:01:13;0.90;;;0.85;;
9398;SDS011;4739;49.334;8.792;2022-08-01T16:03:39;1.38;;;0.77;;
9398;SDS011;4739;49.334;8.792;2022-08-01T16:06:05;1.73;;;0.80;;
9398;SDS011;4739;49.334;8.792;2022-08-01T16:08:32;1.00;;;0.80;;